createdAt,value
2018-01-22T00:00:48.032Z,40.14
2018-01-22T00:01:48.008Z,40.34
2018-01-22T00:02:47.986Z,40.24
2018-01-22T00:03:47.962Z,40.34
2018-01-22T00:04:47.941Z,40.14
2018-01-22T00:05:47.920Z,40.14
2018-01-22T00:06:47.899Z,39.76
2018-01-22T00:07:47.876Z,39.95
2018-01-22T00:08:47.853Z,40.14
2018-01-22T00:09:47.833Z,40.43
2018-01-22T00:10:47.810Z,40.14
2018-01-22T00:11:47.789Z,40.51
2018-01-22T00:12:47.766Z,40.43
2018-01-22T00:13:47.747Z,39.95
2018-01-22T00:14:47.724Z,40.51
2018-01-22T00:15:47.701Z,40.34
2018-01-22T00:16:47.679Z,40.41
2018-01-22T00:17:47.658Z,40.63
2018-01-22T00:18:47.636Z,40.61
2018-01-22T00:19:47.614Z,40.53
2018-01-22T00:20:47.592Z,41.01
2018-01-22T00:21:47.571Z,40.31
2018-01-22T00:22:47.548Z,40.31
2018-01-22T00:23:47.526Z,40.70
2018-01-22T00:24:47.505Z,41.08
2018-01-22T00:25:47.484Z,40.99
2018-01-22T00:26:47.462Z,41.28
2018-01-22T00:27:47.440Z,41.18
2018-01-22T00:28:47.418Z,41.47
2018-01-22T00:29:47.400Z,41.56
2018-01-22T00:30:47.376Z,41.08
2018-01-22T00:31:47.352Z,40.99
2018-01-22T00:32:47.331Z,41.18
2018-01-22T00:33:47.311Z,40.89
2018-01-22T00:34:47.289Z,40.99
2018-01-22T00:35:47.265Z,41.08
2018-01-22T00:36:47.245Z,41.08
2018-01-22T00:37:47.223Z,40.80
2018-01-22T00:38:47.202Z,40.80
2018-01-22T00:39:47.179Z,40.70
2018-01-22T00:40:47.157Z,40.80
2018-01-22T00:41:47.135Z,40.99
2018-01-22T00:42:47.116Z,40.80
2018-01-22T00:43:47.092Z,41.47
2018-01-22T00:44:47.070Z,41.47
2018-01-22T00:45:47.049Z,41.47
2018-01-22T00:46:47.027Z,41.66
2018-01-22T00:47:47.004Z,41.38
2018-01-22T00:48:46.983Z,41.38
2018-01-22T00:49:46.961Z,41.28
2018-01-22T00:50:46.940Z,41.74
2018-01-22T00:51:46.917Z,41.08
2018-01-22T00:52:46.896Z,41.06
2018-01-22T00:53:46.875Z,41.83
2018-01-22T00:54:46.855Z,41.64
2018-01-22T00:55:46.831Z,41.93
2018-01-22T00:56:46.810Z,41.47
2018-01-22T00:57:46.789Z,40.99
2018-01-22T00:58:46.767Z,40.99
2018-01-22T00:59:46.744Z,41.06
2018-01-22T01:00:46.723Z,41.18
2018-01-22T01:01:46.701Z,40.88
2018-01-22T01:02:46.681Z,40.89
2018-01-22T01:03:46.658Z,41.08
2018-01-22T01:04:46.637Z,41.08
2018-01-22T01:05:46.615Z,40.80
2018-01-22T01:06:46.594Z,40.70
2018-01-22T01:07:46.571Z,40.80
2018-01-22T01:08:46.550Z,40.88
2018-01-22T01:09:46.528Z,40.99
2018-01-22T01:10:46.506Z,40.99
2018-01-22T01:11:46.485Z,40.41
2018-01-22T01:12:46.463Z,40.68
2018-01-22T01:13:46.442Z,40.97
2018-01-22T01:14:46.419Z,41.16
2018-01-22T01:15:46.398Z,41.08
2018-01-22T01:16:46.375Z,41.06
2018-01-22T01:17:46.354Z,41.35
2018-01-22T01:18:46.331Z,41.55
2018-01-22T01:19:46.310Z,40.97
2018-01-22T01:20:46.289Z,40.80
2018-01-22T01:21:46.268Z,41.08
2018-01-22T01:22:46.246Z,40.97
2018-01-22T01:23:46.222Z,40.99
2018-01-22T01:24:46.201Z,41.18
2018-01-22T01:25:46.180Z,40.89
2018-01-22T01:26:46.158Z,41.08
2018-01-22T01:27:46.136Z,40.70
2018-01-22T01:28:46.114Z,40.61
2018-01-22T01:29:46.092Z,40.70
2018-01-22T01:30:46.070Z,40.97
2018-01-22T01:31:46.047Z,40.99
2018-01-22T01:32:46.025Z,41.06
2018-01-22T01:33:46.007Z,41.35
2018-01-22T01:34:46.024Z,41.16
2018-01-22T01:35:45.958Z,40.78
2018-01-22T01:36:45.937Z,41.26
2018-01-22T01:37:45.916Z,40.88
2018-01-22T01:38:45.894Z,40.68
2018-01-22T01:39:45.870Z,40.97
2018-01-22T01:40:45.850Z,40.70
2018-01-22T01:41:45.826Z,40.41
2018-01-22T01:42:45.805Z,40.51
2018-01-22T01:43:45.783Z,40.31
2018-01-22T01:44:45.761Z,40.41
2018-01-22T01:45:45.740Z,40.12
2018-01-22T01:46:45.718Z,40.39
2018-01-22T01:47:45.695Z,40.51
2018-01-22T01:48:45.673Z,40.51
2018-01-22T01:49:45.651Z,40.58
2018-01-22T01:50:45.630Z,40.88
2018-01-22T01:51:45.606Z,40.78
2018-01-22T01:52:45.584Z,40.51
2018-01-22T01:53:45.563Z,40.12
2018-01-22T01:54:45.541Z,40.39
2018-01-22T01:55:45.518Z,41.06
2018-01-22T01:56:45.497Z,41.45
2018-01-22T01:57:45.478Z,40.68
2018-01-22T01:58:45.459Z,40.30
2018-01-22T01:59:45.430Z,40.39
2018-01-22T02:00:45.408Z,40.51
2018-01-22T02:01:45.387Z,40.20
2018-01-22T02:02:45.365Z,40.68
2018-01-22T02:03:45.342Z,41.16
2018-01-22T02:04:45.339Z,41.16
2018-01-22T02:05:45.299Z,40.78
2018-01-22T02:06:45.277Z,40.58
2018-01-22T02:07:45.254Z,40.20
2018-01-22T02:08:45.232Z,40.49
2018-01-22T02:09:45.209Z,40.39
2018-01-22T02:10:45.188Z,40.39
2018-01-22T02:11:45.170Z,40.58
2018-01-22T02:12:45.143Z,40.30
2018-01-22T02:13:45.121Z,40.39
2018-01-22T02:14:45.099Z,40.39
2018-01-22T02:15:45.078Z,40.78
2018-01-22T02:16:45.055Z,40.97
2018-01-22T02:17:45.034Z,40.68
2018-01-22T02:18:45.012Z,40.58
2018-01-22T02:19:44.988Z,40.39
2018-01-22T02:20:44.967Z,40.78
2018-01-22T02:21:44.945Z,41.06
2018-01-22T02:22:44.922Z,40.20
2018-01-22T02:23:44.900Z,41.06
2018-01-22T02:24:44.884Z,41.06
2018-01-22T02:25:44.856Z,40.78
2018-01-22T02:26:44.835Z,41.16
2018-01-22T02:27:44.812Z,40.68
2018-01-22T02:28:44.817Z,40.58
2018-01-22T02:29:44.769Z,40.58
2018-01-22T02:30:44.750Z,41.05
2018-01-22T02:31:44.724Z,40.88
2018-01-22T02:32:44.704Z,40.97
2018-01-22T02:33:44.680Z,40.85
2018-01-22T02:34:44.658Z,40.97
2018-01-22T02:35:44.636Z,41.06
2018-01-22T02:36:44.615Z,40.58
2018-01-22T02:37:44.593Z,41.16
2018-01-22T02:38:44.570Z,41.06
2018-01-22T02:39:44.547Z,40.97
2018-01-22T02:40:44.526Z,40.95
2018-01-22T02:41:44.504Z,40.76
2018-01-22T02:42:44.482Z,40.97
2018-01-22T02:43:44.459Z,41.14
2018-01-22T02:44:44.439Z,41.05
2018-01-22T02:45:44.417Z,41.14
2018-01-22T02:46:44.399Z,40.88
2018-01-22T02:47:44.372Z,40.68
2018-01-22T02:48:44.350Z,40.78
2018-01-22T02:49:44.329Z,40.88
2018-01-22T02:50:44.307Z,40.97
2018-01-22T02:51:44.283Z,41.33
2018-01-22T02:52:44.262Z,40.97
2018-01-22T02:53:44.240Z,41.05
2018-01-22T02:54:44.220Z,40.97
2018-01-22T02:55:44.196Z,41.06
2018-01-22T02:56:44.174Z,40.78
2018-01-22T02:57:44.153Z,40.68
2018-01-22T02:58:44.132Z,40.58
2018-01-22T02:59:44.106Z,40.88
2018-01-22T03:00:44.085Z,40.58
2018-01-22T03:01:44.067Z,40.78
2018-01-22T03:02:44.042Z,40.85
2018-01-22T03:03:44.018Z,40.97
2018-01-22T03:04:43.997Z,40.58
2018-01-22T03:05:43.975Z,40.68
2018-01-22T03:06:43.952Z,40.58
2018-01-22T03:07:43.930Z,40.88
2018-01-22T03:08:43.911Z,40.58
2018-01-22T03:09:43.886Z,40.58
2018-01-22T03:10:43.863Z,40.49
2018-01-22T03:11:43.841Z,40.66
2018-01-22T03:12:43.819Z,40.56
2018-01-22T03:13:43.799Z,40.58
2018-01-22T03:14:43.775Z,40.68
2018-01-22T03:15:43.752Z,40.56
2018-01-22T03:16:43.730Z,40.66
2018-01-22T03:17:43.708Z,40.08
2018-01-22T03:18:43.686Z,40.49
2018-01-22T03:19:43.663Z,40.39
2018-01-22T03:20:43.641Z,40.11
2018-01-22T03:21:43.619Z,40.37
2018-01-22T03:22:43.597Z,40.20
2018-01-22T03:23:43.574Z,40.56
2018-01-22T03:24:43.554Z,40.56
2018-01-22T03:25:43.530Z,40.56
2018-01-22T03:26:43.508Z,40.39
2018-01-22T03:27:43.487Z,40.49
2018-01-22T03:28:43.462Z,40.49
2018-01-22T03:29:43.441Z,39.91
2018-01-22T03:30:43.422Z,40.56
2018-01-22T03:31:43.396Z,40.56
2018-01-22T03:32:43.374Z,40.85
2018-01-22T03:33:43.352Z,40.66
2018-01-22T03:34:43.330Z,40.28
2018-01-22T03:35:43.307Z,40.58
2018-01-22T03:36:43.283Z,40.37
2018-01-22T03:37:43.261Z,40.85
2018-01-22T03:38:43.241Z,40.18
2018-01-22T03:39:43.218Z,41.05
2018-01-22T03:40:43.196Z,41.14
2018-01-22T03:41:43.174Z,41.14
2018-01-22T03:42:43.152Z,41.14
2018-01-22T03:43:43.129Z,41.14
2018-01-22T03:44:43.107Z,40.76
2018-01-22T03:45:43.084Z,40.95
2018-01-22T03:46:43.063Z,41.33
2018-01-22T03:47:43.041Z,41.06
2018-01-22T03:48:43.019Z,40.88
2018-01-22T03:49:42.997Z,41.06
2018-01-22T03:50:42.975Z,40.39
2018-01-22T03:51:42.952Z,40.49
2018-01-22T03:52:42.929Z,40.39
2018-01-22T03:53:42.909Z,39.81
2018-01-22T03:54:42.886Z,39.91
2018-01-22T03:55:42.877Z,40.30
2018-01-22T03:56:42.840Z,40.49
2018-01-22T03:57:42.818Z,40.11
2018-01-22T03:58:42.796Z,40.22
2018-01-22T03:59:42.773Z,40.12
2018-01-22T04:00:42.752Z,39.54
2018-01-22T04:01:42.726Z,39.54
2018-01-22T04:02:42.705Z,39.64
2018-01-22T04:03:42.681Z,39.93
2018-01-22T04:04:42.658Z,39.83
2018-01-22T04:05:42.637Z,39.64
2018-01-22T04:06:42.614Z,39.16
2018-01-22T04:07:42.590Z,39.74
2018-01-22T04:08:42.568Z,39.16
2018-01-22T04:09:42.548Z,39.54
2018-01-22T04:10:42.522Z,39.26
2018-01-22T04:11:42.499Z,39.45
2018-01-22T04:12:42.477Z,39.54
2018-01-22T04:13:42.454Z,39.64
2018-01-22T04:14:42.432Z,39.74
2018-01-22T04:15:42.409Z,39.74
2018-01-22T04:16:42.386Z,39.93
2018-01-22T04:17:42.364Z,39.47
2018-01-22T04:18:42.340Z,39.16
2018-01-22T04:19:42.317Z,39.64
2018-01-22T04:20:42.296Z,39.76
2018-01-22T04:21:42.272Z,39.09
2018-01-22T04:22:42.251Z,39.18
2018-01-22T04:23:42.228Z,39.37
2018-01-22T04:24:42.205Z,39.74
2018-01-22T04:25:42.183Z,39.74
2018-01-22T04:26:42.160Z,39.54
2018-01-22T04:27:42.137Z,39.28
2018-01-22T04:28:42.115Z,39.54
2018-01-22T04:29:42.092Z,39.86
2018-01-22T04:30:42.071Z,39.54
2018-01-22T04:31:42.048Z,39.74
2018-01-22T04:32:42.025Z,39.56
2018-01-22T04:33:42.003Z,39.26
2018-01-22T04:34:41.988Z,39.47
2018-01-22T04:35:41.957Z,39.76
2018-01-22T04:36:41.934Z,39.76
2018-01-22T04:37:41.913Z,39.74
2018-01-22T04:38:41.891Z,39.36
2018-01-22T04:39:41.868Z,39.64
2018-01-22T04:40:41.845Z,39.54
2018-01-22T04:41:41.824Z,39.56
2018-01-22T04:42:41.800Z,39.45
2018-01-22T04:43:41.778Z,39.54
2018-01-22T04:44:41.755Z,39.66
2018-01-22T04:45:41.734Z,39.18
2018-01-22T04:46:41.712Z,39.64
2018-01-22T04:47:41.745Z,39.76
2018-01-22T04:48:41.667Z,39.76
2018-01-22T04:49:41.644Z,39.74
2018-01-22T04:50:41.623Z,39.54
2018-01-22T04:51:41.600Z,39.76
2018-01-22T04:52:41.576Z,39.64
2018-01-22T04:53:41.587Z,39.76
2018-01-22T04:54:41.534Z,39.64
2018-01-22T04:55:41.514Z,39.47
2018-01-22T04:56:41.488Z,39.66
2018-01-22T04:57:41.466Z,39.76
2018-01-22T04:58:41.443Z,39.47
2018-01-22T04:59:41.420Z,39.56
2018-01-22T05:00:41.399Z,39.28
2018-01-22T05:01:41.376Z,39.66
2018-01-22T05:02:41.355Z,39.37
2018-01-22T05:03:41.332Z,39.56
2018-01-22T05:04:41.310Z,39.76
2018-01-22T05:05:41.294Z,39.76
2018-01-22T05:06:41.272Z,39.47
2018-01-22T05:07:41.242Z,39.66
2018-01-22T05:08:41.220Z,39.76
2018-01-22T05:09:41.253Z,39.66
2018-01-22T05:10:41.178Z,40.14
2018-01-22T05:11:41.153Z,40.14
2018-01-22T05:12:41.131Z,40.14
2018-01-22T05:13:41.109Z,39.47
2018-01-22T05:14:41.087Z,39.56
2018-01-22T05:15:41.064Z,39.76
2018-01-22T05:16:41.043Z,39.66
2018-01-22T05:17:41.021Z,39.64
2018-01-22T05:18:40.999Z,40.14
2018-01-22T05:19:40.976Z,40.24
2018-01-22T05:20:40.953Z,40.05
2018-01-22T05:21:40.931Z,40.24
2018-01-22T05:22:40.910Z,40.22
2018-01-22T05:23:40.887Z,39.83
2018-01-22T05:24:40.865Z,40.51
2018-01-22T05:25:40.843Z,39.83
2018-01-22T05:26:40.820Z,39.86
2018-01-22T05:27:40.798Z,40.05
2018-01-22T05:28:40.776Z,39.95
2018-01-22T05:29:40.755Z,40.05
2018-01-22T05:30:40.733Z,40.05
2018-01-22T05:31:40.710Z,40.14
2018-01-22T05:32:40.688Z,40.51
2018-01-22T05:33:40.666Z,39.86
2018-01-22T05:34:40.642Z,40.43
2018-01-22T05:35:40.620Z,39.93
2018-01-22T05:36:40.598Z,40.34
2018-01-22T05:37:40.577Z,40.24
2018-01-22T05:38:40.805Z,40.63
2018-01-22T05:39:40.532Z,40.43
2018-01-22T05:40:40.509Z,40.24
2018-01-22T05:41:40.488Z,40.63
2018-01-22T05:42:40.466Z,40.70
2018-01-22T05:43:40.442Z,40.99
2018-01-22T05:44:40.421Z,41.68
2018-01-22T05:45:40.398Z,41.68
2018-01-22T05:46:40.377Z,41.78
2018-01-22T05:47:40.400Z,41.68
2018-01-22T05:48:40.331Z,41.68
2018-01-22T05:49:40.308Z,41.78
2018-01-22T05:50:40.286Z,42.07
2018-01-22T05:51:40.263Z,42.16
2018-01-22T05:52:40.241Z,42.26
2018-01-22T05:53:40.217Z,42.26
2018-01-22T05:54:40.197Z,42.46
2018-01-22T05:55:40.175Z,42.07
2018-01-22T05:56:40.151Z,42.46
2018-01-22T05:57:40.134Z,42.93
2018-01-22T05:58:40.107Z,43.03
2018-01-22T05:59:40.084Z,42.93
2018-01-22T06:00:40.061Z,43.51
2018-01-22T06:01:40.039Z,43.80
2018-01-22T06:02:40.017Z,43.80
2018-01-22T06:03:39.993Z,43.61
2018-01-22T06:04:39.971Z,43.32
2018-01-22T06:05:39.949Z,43.32
2018-01-22T06:06:39.927Z,43.61
2018-01-22T06:07:39.904Z,43.32
2018-01-22T06:08:39.882Z,43.71
2018-01-22T06:09:39.860Z,43.82
2018-01-22T06:10:39.838Z,43.51
2018-01-22T06:11:39.814Z,43.63
2018-01-22T06:12:39.792Z,43.99
2018-01-22T06:13:39.770Z,43.99
2018-01-22T06:14:39.750Z,43.99
2018-01-22T06:15:39.725Z,43.99
2018-01-22T06:16:39.702Z,44.96
2018-01-22T06:17:39.681Z,44.19
2018-01-22T06:18:39.658Z,43.80
2018-01-22T06:19:39.634Z,44.02
2018-01-22T06:20:39.612Z,43.99
2018-01-22T06:21:39.592Z,44.02
2018-01-22T06:22:39.568Z,43.99
2018-01-22T06:23:39.545Z,44.19
2018-01-22T06:24:39.523Z,43.82
2018-01-22T06:25:39.501Z,44.49
2018-01-22T06:26:39.479Z,44.21
2018-01-22T06:27:39.457Z,44.02
2018-01-22T06:28:39.440Z,44.02
2018-01-22T06:29:39.412Z,43.73
2018-01-22T06:30:39.442Z,44.02
2018-01-22T06:31:39.366Z,43.63
2018-01-22T06:32:39.344Z,43.63
2018-01-22T06:33:39.322Z,43.34
2018-01-22T06:34:39.301Z,43.63
2018-01-22T06:35:39.276Z,43.44
2018-01-22T06:36:39.255Z,43.54
2018-01-22T06:37:39.234Z,43.99
2018-01-22T06:38:39.212Z,44.67
2018-01-22T06:39:41.093Z,44.11
2018-01-22T06:40:39.166Z,44.02
2018-01-22T06:41:39.144Z,43.73
2018-01-22T06:42:39.122Z,43.54
2018-01-22T06:43:39.098Z,43.54
2018-01-22T06:44:39.078Z,43.82
2018-01-22T06:45:39.056Z,43.73
2018-01-22T06:46:39.034Z,43.73
2018-01-22T06:47:39.010Z,43.63
2018-01-22T06:48:38.989Z,43.54
2018-01-22T06:49:38.966Z,43.15
2018-01-22T06:50:38.944Z,43.05
2018-01-22T06:51:38.920Z,42.86
2018-01-22T06:52:38.900Z,42.76
2018-01-22T06:53:38.876Z,42.76
2018-01-22T06:54:38.856Z,42.96
2018-01-22T06:55:38.832Z,42.86
2018-01-22T06:56:38.810Z,42.86
2018-01-22T06:57:38.789Z,42.96
2018-01-22T06:58:38.767Z,42.57
2018-01-22T06:59:38.744Z,42.76
2018-01-22T07:00:38.722Z,42.86
2018-01-22T07:01:38.700Z,42.47
2018-01-22T07:02:38.677Z,42.86
2018-01-22T07:03:38.654Z,42.86
2018-01-22T07:04:38.633Z,42.96
2018-01-22T07:05:38.610Z,42.57
2018-01-22T07:06:38.589Z,42.47
2018-01-22T07:07:38.564Z,42.47
2018-01-22T07:08:38.545Z,42.86
2018-01-22T07:09:38.525Z,42.47
2018-01-22T07:10:38.500Z,42.47
2018-01-22T07:11:38.477Z,42.47
2018-01-22T07:12:38.455Z,42.67
2018-01-22T07:13:38.433Z,42.47
2018-01-22T07:14:38.412Z,42.47
2018-01-22T07:15:38.392Z,42.47
2018-01-22T07:16:38.401Z,42.57
2018-01-22T07:17:38.345Z,42.76
2018-01-22T07:18:38.323Z,42.67
2018-01-22T07:19:38.300Z,42.76
2018-01-22T07:20:38.278Z,42.47
2018-01-22T07:21:38.254Z,42.67
2018-01-22T07:22:38.233Z,42.47
2018-01-22T07:23:38.210Z,42.28
2018-01-22T07:24:38.188Z,42.28
2018-01-22T07:25:38.166Z,42.47
2018-01-22T07:26:38.146Z,42.38
2018-01-22T07:27:38.125Z,42.86
2018-01-22T07:28:38.100Z,42.28
2018-01-22T07:29:38.084Z,42.57
2018-01-22T07:30:38.057Z,42.28
2018-01-22T07:31:38.034Z,42.57
2018-01-22T07:32:38.012Z,42.86
2018-01-22T07:33:37.990Z,42.38
2018-01-22T07:34:37.968Z,42.57
2018-01-22T07:35:37.948Z,42.47
2018-01-22T07:36:37.923Z,42.57
2018-01-22T07:37:37.902Z,42.28
2018-01-22T07:38:37.880Z,42.38
2018-01-22T07:39:37.857Z,42.57
2018-01-22T07:40:37.836Z,42.47
2018-01-22T07:41:37.817Z,42.38
2018-01-22T07:42:37.792Z,42.47
2018-01-22T07:43:37.770Z,42.57
2018-01-22T07:44:37.747Z,42.47
2018-01-22T07:45:37.726Z,42.28
2018-01-22T07:46:37.704Z,42.28
2018-01-22T07:47:37.680Z,42.19
2018-01-22T07:48:37.659Z,42.09
2018-01-22T07:49:37.637Z,42.47
2018-01-22T07:50:37.616Z,42.38
2018-01-22T07:51:37.593Z,41.99
2018-01-22T07:52:37.570Z,42.38
2018-01-22T07:53:37.550Z,42.47
2018-01-22T07:54:37.529Z,42.28
2018-01-22T07:55:37.505Z,42.28
2018-01-22T07:56:37.483Z,41.99
2018-01-22T07:57:37.461Z,42.28
2018-01-22T07:58:37.440Z,42.57
2018-01-22T07:59:37.419Z,42.38
2018-01-22T08:00:37.395Z,42.47
2018-01-22T08:01:37.373Z,41.99
2018-01-22T08:02:37.352Z,41.99
2018-01-22T08:03:37.330Z,42.19
2018-01-22T08:04:37.308Z,41.89
2018-01-22T08:05:37.286Z,42.09
2018-01-22T08:06:37.265Z,42.09
2018-01-22T08:07:37.242Z,41.99
2018-01-22T08:08:37.219Z,41.99
2018-01-22T08:09:37.198Z,42.28
2018-01-22T08:10:37.178Z,41.99
2018-01-22T08:11:37.155Z,41.99
2018-01-22T08:12:37.133Z,42.09
2018-01-22T08:13:37.111Z,42.09
2018-01-22T08:14:37.093Z,42.09
2018-01-22T08:15:37.066Z,42.09
2018-01-22T08:16:37.044Z,41.99
2018-01-22T08:17:37.023Z,41.71
2018-01-22T08:18:37.002Z,41.53
2018-01-22T08:19:36.979Z,41.82
2018-01-22T08:20:36.958Z,41.71
2018-01-22T08:21:36.939Z,41.99
2018-01-22T08:22:36.914Z,41.71
2018-01-22T08:23:36.891Z,41.82
2018-01-22T08:24:36.873Z,41.72
2018-01-22T08:25:36.848Z,41.61
2018-01-22T08:26:36.826Z,41.71
2018-01-22T08:27:36.804Z,41.89
2018-01-22T08:28:36.782Z,41.71
2018-01-22T08:29:36.760Z,41.99
2018-01-22T08:30:36.740Z,41.89
2018-01-22T08:31:36.716Z,41.89
2018-01-22T08:32:36.696Z,41.80
2018-01-22T08:33:36.678Z,41.71
2018-01-22T08:34:36.652Z,41.71
2018-01-22T08:35:36.631Z,41.63
2018-01-22T08:36:36.607Z,41.71
2018-01-22T08:37:36.586Z,41.63
2018-01-22T08:38:36.564Z,41.53
2018-01-22T08:39:36.541Z,41.53
2018-01-22T08:40:36.520Z,41.44
2018-01-22T08:41:36.498Z,41.34
2018-01-22T08:42:36.478Z,41.14
2018-01-22T08:43:36.453Z,41.05
2018-01-22T08:44:36.432Z,41.24
2018-01-22T08:45:36.411Z,40.95
2018-01-22T08:46:36.390Z,40.95
2018-01-22T08:47:36.367Z,41.05
2018-01-22T08:48:36.344Z,41.14
2018-01-22T08:49:36.323Z,40.86
2018-01-22T08:50:36.302Z,41.14
2018-01-22T08:51:36.279Z,41.14
2018-01-22T08:52:36.258Z,40.95
2018-01-22T08:53:36.236Z,41.14
2018-01-22T08:54:36.215Z,40.76
2018-01-22T08:55:36.193Z,41.24
2018-01-22T08:56:36.172Z,41.14
2018-01-22T08:57:36.151Z,40.95
2018-01-22T08:58:36.129Z,41.05
2018-01-22T08:59:36.107Z,41.05
2018-01-22T09:00:36.085Z,41.05
2018-01-22T09:01:36.064Z,41.14
2018-01-22T09:02:36.042Z,41.05
2018-01-22T09:03:36.019Z,40.86
2018-01-22T09:04:35.997Z,41.14
2018-01-22T09:05:35.976Z,40.95
2018-01-22T09:06:35.954Z,41.05
2018-01-22T09:07:35.932Z,40.95
2018-01-22T09:08:35.911Z,41.24
2018-01-22T09:09:35.890Z,40.95
2018-01-22T09:10:35.868Z,41.05
2018-01-22T09:11:35.845Z,40.86
2018-01-22T09:12:35.827Z,40.86
2018-01-22T09:13:35.803Z,40.95
2018-01-22T09:14:35.781Z,41.14
2018-01-22T09:15:35.759Z,41.05
2018-01-22T09:16:35.736Z,41.14
2018-01-22T09:17:35.716Z,41.14
2018-01-22T09:18:35.692Z,40.86
2018-01-22T09:19:35.670Z,41.05
2018-01-22T09:20:35.649Z,41.24
2018-01-22T09:21:35.629Z,41.05
2018-01-22T09:22:35.605Z,41.05
2018-01-22T09:23:35.584Z,41.05
2018-01-22T09:24:35.561Z,41.24
2018-01-22T09:25:35.541Z,41.53
2018-01-22T09:26:35.520Z,40.95
2018-01-22T09:27:35.497Z,40.76
2018-01-22T09:28:35.476Z,41.14
2018-01-22T09:29:35.454Z,41.14
2018-01-22T09:30:35.432Z,41.24
2018-01-22T09:31:35.409Z,41.05
2018-01-22T09:32:35.388Z,40.47
2018-01-22T09:33:35.366Z,40.57
2018-01-22T09:34:35.346Z,40.39
2018-01-22T09:35:35.323Z,40.59
2018-01-22T09:36:35.301Z,40.66
2018-01-22T09:37:35.279Z,40.76
2018-01-22T09:38:35.259Z,40.86
2018-01-22T09:39:35.238Z,41.14
2018-01-22T09:40:35.214Z,40.95
2018-01-22T09:41:35.192Z,40.86
2018-01-22T09:42:35.172Z,40.66
2018-01-22T09:43:35.152Z,40.66
2018-01-22T09:44:35.127Z,40.47
2018-01-22T09:45:35.106Z,40.57
2018-01-22T09:46:35.085Z,40.66
2018-01-22T09:47:35.062Z,40.59
2018-01-22T09:48:35.040Z,40.49
2018-01-22T09:49:35.020Z,40.37
2018-01-22T09:50:34.998Z,40.37
2018-01-22T09:51:34.977Z,40.76
2018-01-22T09:52:34.953Z,40.37
2018-01-22T09:53:34.935Z,40.37
2018-01-22T09:54:34.910Z,40.59
2018-01-22T09:55:34.889Z,40.49
2018-01-22T09:56:34.868Z,40.30
2018-01-22T09:57:34.846Z,40.20
2018-01-22T09:58:34.824Z,40.01
2018-01-22T09:59:34.803Z,40.20
2018-01-22T10:00:34.781Z,39.91
2018-01-22T10:01:34.760Z,39.91
2018-01-22T10:02:34.738Z,40.30
2018-01-22T10:03:34.715Z,40.30
2018-01-22T10:04:34.697Z,40.20
2018-01-22T10:05:34.673Z,39.72
2018-01-22T10:06:34.652Z,39.62
2018-01-22T10:07:34.629Z,39.82
2018-01-22T10:08:34.608Z,39.06
2018-01-22T10:09:34.586Z,38.31
2018-01-22T10:10:34.565Z,37.08
2018-01-22T10:11:34.542Z,36.88
2018-01-22T10:12:34.520Z,36.50
2018-01-22T10:13:34.500Z,37.08
2018-01-22T10:14:34.479Z,36.88
2018-01-22T10:15:34.457Z,36.61
2018-01-22T10:16:34.434Z,36.71
2018-01-22T10:17:34.415Z,36.98
2018-01-22T10:18:34.393Z,36.69
2018-01-22T10:19:34.371Z,37.15
2018-01-22T10:20:34.349Z,37.17
2018-01-22T10:21:34.329Z,37.10
2018-01-22T10:22:34.308Z,35.68
2018-01-22T10:23:34.285Z,33.69
2018-01-22T10:24:34.265Z,31.86
2018-01-22T10:25:34.243Z,31.68
2018-01-22T10:26:34.222Z,31.49
2018-01-22T10:27:34.199Z,30.92
2018-01-22T10:28:34.179Z,30.44
2018-01-22T10:29:34.157Z,30.71
2018-01-22T10:30:34.137Z,31.76
2018-01-22T10:31:34.115Z,31.59
2018-01-22T10:32:34.094Z,30.73
2018-01-22T10:33:34.074Z,29.50
2018-01-22T10:34:34.053Z,29.02
2018-01-22T10:35:34.034Z,28.91
2018-01-22T10:36:34.009Z,29.02
2018-01-22T10:37:33.989Z,29.28
2018-01-22T10:38:33.973Z,30.35
2018-01-22T10:39:33.947Z,31.10
2018-01-22T10:40:33.929Z,31.86
2018-01-22T10:41:33.907Z,32.62
2018-01-22T10:42:33.886Z,33.57
2018-01-22T10:43:33.863Z,33.67
2018-01-22T10:44:33.844Z,34.15
2018-01-22T10:45:33.823Z,34.52
2018-01-22T10:46:33.804Z,34.42
2018-01-22T10:47:33.782Z,34.15
2018-01-22T10:48:33.761Z,33.76
2018-01-22T10:49:33.740Z,32.81
2018-01-22T10:50:33.719Z,32.82
2018-01-22T10:51:33.699Z,31.96
2018-01-22T10:52:33.678Z,31.49
2018-01-22T10:53:33.665Z,30.94
2018-01-22T10:54:33.676Z,29.41
2018-01-22T10:55:33.616Z,29.50
2018-01-22T10:56:33.595Z,29.69
2018-01-22T10:57:33.575Z,29.12
2018-01-22T10:58:33.555Z,27.80
2018-01-22T10:59:33.534Z,26.64
2018-01-22T11:00:33.513Z,27.12
2018-01-22T11:01:33.493Z,27.03
2018-01-22T11:02:33.473Z,27.21
2018-01-22T11:03:33.452Z,28.34
2018-01-22T11:04:33.432Z,28.44
2018-01-22T11:05:33.411Z,28.74
2018-01-22T11:06:33.398Z,29.30
2018-01-22T11:07:33.370Z,30.07
2018-01-22T11:08:33.351Z,30.07
2018-01-22T11:09:33.331Z,29.32
2018-01-22T11:10:33.313Z,28.08
2018-01-22T11:11:33.290Z,28.34
2018-01-22T11:12:33.270Z,29.30
2018-01-22T11:13:33.250Z,29.68
2018-01-22T11:14:33.230Z,30.07
2018-01-22T11:15:33.211Z,30.35
2018-01-22T11:16:33.189Z,30.82
2018-01-22T11:17:33.170Z,30.55
2018-01-22T11:18:33.150Z,30.63
2018-01-22T11:19:33.129Z,31.01
2018-01-22T11:20:33.108Z,31.47
2018-01-22T11:21:33.089Z,31.59
2018-01-22T11:22:33.073Z,31.57
2018-01-22T11:23:33.049Z,31.57
2018-01-22T11:24:33.028Z,31.86
2018-01-22T11:25:33.007Z,31.57
2018-01-22T11:26:32.991Z,31.37
2018-01-22T11:27:32.966Z,31.68
2018-01-22T11:28:32.947Z,31.21
2018-01-22T11:29:32.927Z,30.74
2018-01-22T11:30:32.907Z,29.41
2018-01-22T11:36:07.572Z,29.97
2018-01-22T11:37:07.551Z,29.30
2018-01-22T11:38:07.532Z,29.40
2018-01-22T11:39:07.510Z,29.32
2018-01-22T11:40:07.492Z,29.68
2018-01-22T11:41:07.471Z,30.54
2018-01-22T11:42:07.451Z,30.63
2018-01-22T11:43:07.430Z,30.62
2018-01-22T11:44:07.411Z,31.49
2018-01-22T11:45:07.391Z,30.92
2018-01-22T11:46:07.371Z,30.73
2018-01-22T11:47:07.350Z,30.44
2018-01-22T11:48:07.330Z,30.54
2018-01-22T11:49:07.308Z,30.71
2018-01-22T11:50:07.289Z,31.29
2018-01-22T11:51:07.270Z,31.86
2018-01-22T11:52:07.248Z,32.15
2018-01-22T11:53:07.228Z,32.64
2018-01-22T11:54:07.208Z,32.44
2018-01-22T11:55:07.187Z,31.86
2018-01-22T11:56:07.168Z,31.41
2018-01-22T11:57:07.147Z,30.45
2018-01-22T11:58:07.128Z,30.73
2018-01-22T11:59:07.108Z,30.44
2018-01-22T12:00:07.088Z,31.01
2018-01-22T12:01:07.106Z,31.39
2018-01-22T12:02:07.046Z,30.47
2018-01-22T12:03:07.026Z,29.50
2018-01-22T12:04:07.005Z,29.60
2018-01-22T12:05:06.986Z,30.26
2018-01-22T12:06:06.964Z,29.12
2018-01-22T12:07:06.944Z,28.65
2018-01-22T12:08:06.925Z,27.98
2018-01-22T12:09:06.911Z,27.32
2018-01-22T12:10:06.885Z,27.87
2018-01-22T12:11:06.865Z,27.89
2018-01-22T12:12:06.845Z,27.22
2018-01-22T12:13:06.825Z,25.98
2018-01-22T12:14:06.806Z,25.58
2018-01-22T12:15:06.784Z,27.40
2018-01-22T12:16:06.765Z,27.40
2018-01-22T12:17:06.747Z,27.69
2018-01-22T12:18:06.727Z,27.51
2018-01-22T12:19:06.705Z,27.03
2018-01-22T12:20:06.686Z,26.65
2018-01-22T12:21:06.669Z,26.94
2018-01-22T12:22:06.648Z,26.17
2018-01-22T12:23:06.637Z,25.98
2018-01-22T12:24:06.608Z,25.51
2018-01-22T12:25:06.590Z,26.08
2018-01-22T12:26:06.571Z,26.83
2018-01-22T12:27:06.550Z,27.69
2018-01-22T12:28:06.531Z,27.87
2018-01-22T12:29:06.512Z,28.83
2018-01-22T12:30:06.495Z,29.11
2018-01-22T12:31:06.474Z,29.28
2018-01-22T12:32:06.455Z,30.26
2018-01-22T12:33:06.435Z,30.73
2018-01-22T12:34:06.416Z,30.82
2018-01-22T12:35:06.395Z,31.29
2018-01-22T12:36:06.377Z,31.49
2018-01-22T12:37:06.357Z,31.59
2018-01-22T12:38:06.337Z,31.96
2018-01-22T12:39:06.317Z,32.15
2018-01-22T12:40:06.299Z,32.73
2018-01-22T12:41:06.279Z,32.81
2018-01-22T12:42:06.260Z,32.81
2018-01-22T12:43:06.239Z,33.59
2018-01-22T12:44:06.220Z,33.37
2018-01-22T12:45:06.200Z,33.86
2018-01-22T12:46:06.180Z,34.25
2018-01-22T12:47:06.160Z,34.54
2018-01-22T12:48:06.143Z,34.62
2018-01-22T12:49:06.120Z,34.91
2018-01-22T12:50:06.102Z,35.00
2018-01-22T12:51:06.080Z,35.10
2018-01-22T12:52:06.059Z,35.49
2018-01-22T12:53:06.039Z,35.28
2018-01-22T12:54:06.020Z,35.57
2018-01-22T12:55:05.999Z,35.47
2018-01-22T12:56:05.979Z,35.47
2018-01-22T12:57:05.959Z,35.86